createdAt,value
2016-12-15T00:01:18.416Z,0
2016-12-15T00:02:03.512Z,0
2016-12-15T00:03:03.533Z,0
2016-12-15T00:04:03.546Z,0
2016-12-15T00:05:03.563Z,0
2016-12-15T00:06:03.581Z,0
2016-12-15T00:07:03.599Z,0
2016-12-15T00:08:03.612Z,0
2016-12-15T00:09:03.632Z,0
2016-12-15T00:10:03.653Z,0
2016-12-15T00:11:18.581Z,0
2016-12-15T00:12:33.513Z,0
2016-12-15T00:13:03.697Z,0
2016-12-15T00:14:03.714Z,0
2016-12-15T00:15:18.644Z,0
2016-12-15T00:17:18.692Z,0
2016-12-15T00:18:03.781Z,0
2016-12-15T00:19:03.796Z,0
2016-12-15T00:20:03.817Z,0
2016-12-15T00:21:03.832Z,0
2016-12-15T00:22:03.844Z,0
2016-12-15T00:23:03.860Z,0
2016-12-15T00:24:03.881Z,0
2016-12-15T00:25:03.893Z,0
2016-12-15T00:26:03.911Z,0
2016-12-15T00:27:03.930Z,0
2016-12-15T00:28:03.956Z,0
2016-12-15T00:29:03.963Z,0
2016-12-15T00:30:03.981Z,0
2016-12-15T00:31:03.995Z,0
2016-12-15T00:32:04.021Z,0
2016-12-15T00:33:18.953Z,0
2016-12-15T00:34:04.048Z,0
2016-12-15T00:35:04.064Z,0
2016-12-15T00:36:04.080Z,0
2016-12-15T00:37:04.455Z,0
2016-12-15T00:38:04.111Z,0
2016-12-15T00:39:04.182Z,0
2016-12-15T00:40:04.154Z,0
2016-12-15T00:41:04.466Z,0
2016-12-15T00:42:04.179Z,0
2016-12-15T00:43:19.116Z,0
2016-12-15T00:44:04.213Z,0
2016-12-15T00:45:34.112Z,0
2016-12-15T00:47:04.261Z,0
2016-12-15T00:48:04.283Z,0
2016-12-15T00:49:19.216Z,0
2016-12-15T00:50:04.313Z,0
2016-12-15T00:51:04.329Z,0
2016-12-15T00:52:04.349Z,0
2016-12-15T00:53:04.361Z,0
2016-12-15T00:54:04.405Z,0
2016-12-15T00:55:19.313Z,0
2016-12-15T00:56:19.331Z,0
2016-12-15T00:57:19.350Z,0
2016-12-15T00:58:04.443Z,0
2016-12-15T00:59:04.489Z,0
2016-12-15T01:00:34.314Z,0
2016-12-15T01:01:04.501Z,0
2016-12-15T01:02:04.515Z,0
2016-12-15T01:04:19.468Z,0
2016-12-15T01:05:04.566Z,0
2016-12-15T01:06:04.583Z,0
2016-12-15T01:07:04.602Z,0
2016-12-15T01:08:04.643Z,0
2016-12-15T01:09:04.632Z,0
2016-12-15T01:10:19.566Z,0
2016-12-15T01:11:19.581Z,0
2016-12-15T01:12:04.680Z,0
2016-12-15T01:13:04.698Z,0
2016-12-15T01:14:04.716Z,0
2016-12-15T01:15:04.733Z,0
2016-12-15T01:16:04.753Z,0
2016-12-15T01:17:04.762Z,0
2016-12-15T01:18:04.784Z,0
2016-12-15T01:19:04.799Z,0
2016-12-15T01:20:04.815Z,0
2016-12-15T01:21:04.833Z,0
2016-12-15T01:22:04.848Z,0
2016-12-15T01:23:04.866Z,0
2016-12-15T01:24:04.881Z,0
2016-12-15T01:25:04.897Z,0
2016-12-15T01:26:04.921Z,0
2016-12-15T01:27:04.931Z,0
2016-12-15T01:28:05.098Z,0
2016-12-15T01:29:04.963Z,0
2016-12-15T01:30:19.895Z,0
2016-12-15T01:31:19.917Z,0
2016-12-15T01:32:05.067Z,0
2016-12-15T01:33:05.035Z,0
2016-12-15T01:36:19.999Z,0
2016-12-15T01:37:05.099Z,0
2016-12-15T01:38:05.114Z,0
2016-12-15T01:39:05.134Z,0
2016-12-15T01:40:05.150Z,0
2016-12-15T01:41:05.163Z,0
2016-12-15T01:42:05.183Z,0
2016-12-15T01:44:20.135Z,0
2016-12-15T01:45:05.233Z,0
2016-12-15T01:46:05.248Z,0
2016-12-15T01:47:05.266Z,0
2016-12-15T01:49:05.300Z,0
2016-12-15T01:50:05.317Z,0
2016-12-15T01:51:05.334Z,0
2016-12-15T01:53:05.365Z,0
2016-12-15T01:54:05.383Z,0
2016-12-15T01:55:05.411Z,0
2016-12-15T01:56:05.418Z,0
2016-12-15T01:57:05.435Z,0
2016-12-15T01:58:05.451Z,0
2016-12-15T01:59:20.384Z,0
2016-12-15T02:00:05.534Z,0
2016-12-15T02:01:05.499Z,0
2016-12-15T02:02:05.513Z,0
2016-12-15T02:03:20.448Z,0
2016-12-15T02:04:05.548Z,0
2016-12-15T02:05:20.481Z,0
2016-12-15T02:06:05.586Z,0
2016-12-15T02:08:20.537Z,0
2016-12-15T02:09:05.635Z,0
2016-12-15T02:10:05.650Z,0
2016-12-15T02:11:20.586Z,0
2016-12-15T02:12:05.686Z,0
2016-12-15T02:13:05.705Z,0
2016-12-15T02:14:05.716Z,0
2016-12-15T02:16:05.754Z,0
2016-12-15T02:17:05.815Z,0
2016-12-15T02:18:06.091Z,0
2016-12-15T02:20:20.732Z,0
2016-12-15T02:21:05.828Z,0
2016-12-15T02:22:20.774Z,0
2016-12-15T02:23:05.869Z,0
2016-12-15T02:24:20.835Z,0
2016-12-15T02:25:05.933Z,0
2016-12-15T02:26:05.917Z,0
2016-12-15T02:27:06.237Z,0
2016-12-15T02:28:05.998Z,0
2016-12-15T02:29:05.970Z,0
2016-12-15T02:30:05.985Z,0
2016-12-15T02:31:06.001Z,0
2016-12-15T02:32:06.018Z,0
2016-12-15T02:33:06.088Z,0
2016-12-15T02:34:06.048Z,0
2016-12-15T02:35:21.287Z,0
2016-12-15T02:36:20.999Z,0
2016-12-15T02:37:06.097Z,0
2016-12-15T02:38:06.124Z,0
2016-12-15T02:39:21.057Z,0
2016-12-15T02:40:06.152Z,0
2016-12-15T02:41:06.473Z,0
2016-12-15T02:42:06.212Z,0
2016-12-15T02:43:06.200Z,0
2016-12-15T02:44:06.217Z,0
2016-12-15T02:45:06.231Z,0
2016-12-15T02:46:06.253Z,0
2016-12-15T02:47:06.268Z,0
2016-12-15T02:48:06.284Z,0
2016-12-15T02:49:06.604Z,0
2016-12-15T02:50:21.239Z,0
2016-12-15T02:52:06.354Z,0
2016-12-15T02:53:06.365Z,0
2016-12-15T02:54:06.434Z,0
2016-12-15T02:55:06.402Z,0
2016-12-15T02:56:06.419Z,0
2016-12-15T02:57:06.436Z,0
2016-12-15T02:58:06.450Z,0
2016-12-15T02:59:06.464Z,0
2016-12-15T03:00:06.508Z,0
2016-12-15T03:01:06.510Z,0
2016-12-15T03:02:06.526Z,0
2016-12-15T03:03:21.457Z,0
2016-12-15T03:04:21.470Z,0
2016-12-15T03:05:06.574Z,0
2016-12-15T03:07:06.604Z,0
2016-12-15T03:08:06.649Z,0
2016-12-15T03:10:06.653Z,0
2016-12-15T03:11:21.584Z,0
2016-12-15T03:12:06.684Z,0
2016-12-15T03:13:06.701Z,0
2016-12-15T03:14:06.715Z,0
2016-12-15T03:15:21.660Z,0
2016-12-15T03:16:06.754Z,0
2016-12-15T03:17:06.769Z,0
2016-12-15T03:18:21.704Z,0
2016-12-15T03:19:06.830Z,0
2016-12-15T03:20:06.820Z,0
2016-12-15T03:21:06.836Z,0
2016-12-15T03:22:21.769Z,0
2016-12-15T03:23:06.872Z,0
2016-12-15T03:25:06.907Z,0
2016-12-15T03:26:06.919Z,0
2016-12-15T03:27:21.854Z,0
2016-12-15T03:28:06.954Z,0
2016-12-15T03:29:06.974Z,0
2016-12-15T03:30:06.991Z,0
2016-12-15T03:31:07.007Z,0
2016-12-15T03:33:21.988Z,0
2016-12-15T03:34:21.974Z,0
2016-12-15T03:35:07.077Z,0
2016-12-15T03:36:07.086Z,0
2016-12-15T03:38:07.424Z,0
2016-12-15T03:39:07.147Z,0
2016-12-15T03:40:22.071Z,0
2016-12-15T03:41:07.171Z,0
2016-12-15T03:42:07.188Z,0
2016-12-15T03:44:07.269Z,0
2016-12-15T03:45:07.240Z,0
2016-12-15T03:46:07.253Z,0
2016-12-15T03:47:07.270Z,0
2016-12-15T03:48:07.288Z,0
2016-12-15T03:49:07.304Z,0
2016-12-15T03:50:07.328Z,0
2016-12-15T03:51:22.257Z,0
2016-12-15T03:52:07.356Z,0
2016-12-15T03:53:22.338Z,0
2016-12-15T03:54:07.400Z,0
2016-12-15T03:55:07.731Z,0
2016-12-15T03:56:07.421Z,0
2016-12-15T03:57:07.440Z,0
2016-12-15T03:59:22.393Z,0
2016-12-15T04:01:07.506Z,0
2016-12-15T04:02:07.527Z,0
2016-12-15T04:03:07.543Z,0
2016-12-15T04:04:07.560Z,0
2016-12-15T04:05:07.571Z,0
2016-12-15T04:06:22.507Z,0
2016-12-15T04:07:07.607Z,0
2016-12-15T04:08:07.623Z,0
2016-12-15T04:09:07.639Z,0
2016-12-15T04:10:07.656Z,0
2016-12-15T04:11:07.682Z,0
2016-12-15T04:12:22.606Z,0
2016-12-15T04:13:08.017Z,0
2016-12-15T04:14:22.647Z,0
2016-12-15T04:15:07.744Z,0
2016-12-15T04:16:07.758Z,0
2016-12-15T04:17:07.772Z,0
2016-12-15T04:18:07.793Z,0
2016-12-15T04:19:22.727Z,0
2016-12-15T04:20:08.137Z,0
2016-12-15T04:21:22.758Z,0
2016-12-15T04:22:07.859Z,0
2016-12-15T04:23:07.879Z,0
2016-12-15T04:24:07.896Z,0
2016-12-15T04:25:07.915Z,0
2016-12-15T04:26:07.932Z,0
2016-12-15T04:27:22.859Z,0
2016-12-15T04:28:07.957Z,0
2016-12-15T04:29:07.977Z,0
2016-12-15T04:30:07.994Z,0
2016-12-15T04:31:08.009Z,0
2016-12-15T04:32:08.028Z,0
2016-12-15T04:33:08.397Z,0
2016-12-15T04:34:22.980Z,0
2016-12-15T04:35:08.080Z,0
2016-12-15T04:36:08.097Z,0
2016-12-15T04:37:08.112Z,0
2016-12-15T04:38:08.129Z,0
2016-12-15T04:39:08.170Z,0
2016-12-15T04:40:23.080Z,0
2016-12-15T04:42:23.115Z,0
2016-12-15T04:43:08.215Z,0
2016-12-15T04:44:23.608Z,0
2016-12-15T04:45:08.252Z,0
2016-12-15T04:46:23.179Z,0
2016-12-15T04:47:08.281Z,0
2016-12-15T04:48:08.326Z,0
2016-12-15T04:49:08.313Z,0
2016-12-15T04:50:08.340Z,0
2016-12-15T04:51:08.348Z,0
2016-12-15T04:52:08.415Z,0
2016-12-15T04:53:08.381Z,0
2016-12-15T04:54:08.398Z,0
2016-12-15T04:55:08.414Z,0
2016-12-15T04:56:08.433Z,0
2016-12-15T04:57:08.458Z,0
2016-12-15T04:58:08.513Z,0
2016-12-15T04:59:08.485Z,0
2016-12-15T05:00:08.501Z,0
2016-12-15T05:01:08.517Z,0
2016-12-15T05:02:23.447Z,0
2016-12-15T05:03:08.551Z,0
2016-12-15T05:04:08.566Z,0
2016-12-15T05:05:08.580Z,0
2016-12-15T05:06:08.627Z,0
2016-12-15T05:07:08.616Z,0
2016-12-15T05:08:08.631Z,0
2016-12-15T05:09:23.599Z,0
2016-12-15T05:10:08.696Z,0
2016-12-15T05:12:08.699Z,0
2016-12-15T05:13:08.754Z,0
2016-12-15T05:14:08.734Z,0
2016-12-15T05:15:08.749Z,0
2016-12-15T05:17:08.788Z,0
2016-12-15T05:18:23.716Z,0
2016-12-15T05:19:08.818Z,0
2016-12-15T05:20:08.834Z,0
2016-12-15T05:21:08.853Z,0
2016-12-15T05:22:08.902Z,0
2016-12-15T05:23:08.883Z,0
2016-12-15T05:24:08.905Z,0
2016-12-15T05:25:23.835Z,0
2016-12-15T05:26:08.934Z,0
2016-12-15T05:27:08.953Z,0
2016-12-15T05:28:08.972Z,0
2016-12-15T05:29:23.904Z,0
2016-12-15T05:30:09.007Z,0
2016-12-15T05:32:09.040Z,0
2016-12-15T05:33:09.055Z,0
2016-12-15T05:34:23.989Z,0
2016-12-15T05:35:09.089Z,0
2016-12-15T05:36:09.111Z,0
2016-12-15T05:37:09.169Z,0
2016-12-15T05:38:09.149Z,0
2016-12-15T05:39:24.073Z,0
2016-12-15T05:40:09.175Z,0
2016-12-15T05:41:09.191Z,0
2016-12-15T05:42:24.123Z,0
2016-12-15T05:43:09.220Z,0
2016-12-15T05:45:24.178Z,0
2016-12-15T05:46:09.276Z,0
2016-12-15T05:47:09.289Z,0
2016-12-15T05:48:09.308Z,0
2016-12-15T05:49:39.162Z,0
2016-12-15T05:50:09.343Z,0
2016-12-15T05:51:09.355Z,0
2016-12-15T05:52:09.373Z,0
2016-12-15T05:53:24.308Z,0
2016-12-15T05:54:24.331Z,0
2016-12-15T05:55:09.431Z,0
2016-12-15T05:56:09.439Z,0
2016-12-15T05:57:09.493Z,0
2016-12-15T05:58:09.475Z,0
2016-12-15T05:59:09.492Z,0
2016-12-15T06:00:39.342Z,0
2016-12-15T06:01:09.529Z,0
2016-12-15T06:02:24.507Z,0
2016-12-15T06:03:09.558Z,0
2016-12-15T06:04:09.576Z,0
2016-12-15T06:05:09.619Z,0
2016-12-15T06:06:09.612Z,0
2016-12-15T06:07:09.626Z,0
2016-12-15T06:08:09.643Z,0
2016-12-15T06:09:09.659Z,0
2016-12-15T06:10:09.926Z,0
2016-12-15T06:11:09.692Z,0
2016-12-15T06:12:09.714Z,0
2016-12-15T06:13:09.761Z,0
2016-12-15T06:14:09.743Z,0
2016-12-15T06:15:24.678Z,0
2016-12-15T06:16:24.699Z,0
2016-12-15T06:17:09.802Z,0
2016-12-15T06:19:09.829Z,0
2016-12-15T06:20:09.859Z,0
2016-12-15T06:21:24.780Z,0
2016-12-15T06:23:09.996Z,0
2016-12-15T06:24:09.913Z,0
2016-12-15T06:25:24.853Z,0
2016-12-15T06:26:24.862Z,0
2016-12-15T06:27:09.965Z,0
2016-12-15T06:28:09.983Z,0
2016-12-15T06:29:25.215Z,0
2016-12-15T06:30:10.014Z,0
2016-12-15T06:31:10.031Z,0
2016-12-15T06:32:10.043Z,0
2016-12-15T06:33:10.062Z,0
2016-12-15T06:35:10.102Z,0
2016-12-15T06:36:10.113Z,0
2016-12-15T06:37:25.099Z,0
2016-12-15T06:38:10.149Z,0
2016-12-15T06:39:10.161Z,0
2016-12-15T06:40:10.180Z,0
2016-12-15T06:41:10.197Z,0
2016-12-15T06:42:25.130Z,0
2016-12-15T06:43:10.232Z,0
2016-12-15T06:44:10.244Z,0
2016-12-15T06:45:25.182Z,0
2016-12-15T06:46:10.277Z,0
2016-12-15T06:47:40.131Z,0
2016-12-15T06:48:10.313Z,0
2016-12-15T06:49:10.632Z,0
2016-12-15T06:50:10.349Z,0
2016-12-15T06:51:10.369Z,0
2016-12-15T06:53:25.314Z,0
2016-12-15T06:54:10.412Z,0
2016-12-15T06:55:10.431Z,0
2016-12-15T06:56:10.448Z,0
2016-12-15T06:57:10.460Z,0
2016-12-15T06:58:10.479Z,0
2016-12-15T06:59:10.499Z,0
2016-12-15T07:00:10.512Z,0
2016-12-15T07:01:25.754Z,0
2016-12-15T07:02:10.547Z,0
2016-12-15T07:03:10.561Z,0
2016-12-15T07:04:10.582Z,0
2016-12-15T07:05:10.596Z,0
2016-12-15T07:06:10.614Z,0
2016-12-15T07:07:10.626Z,0
2016-12-15T07:08:10.655Z,0
2016-12-15T07:09:25.578Z,0
2016-12-15T07:10:10.681Z,0
2016-12-15T07:11:10.696Z,0
2016-12-15T07:12:10.715Z,0
2016-12-15T07:13:25.649Z,0
2016-12-15T07:14:10.745Z,0
2016-12-15T07:15:10.767Z,0
2016-12-15T07:16:25.696Z,0
2016-12-15T07:17:10.803Z,0
2016-12-15T07:18:10.823Z,0
2016-12-15T07:19:10.828Z,0
2016-12-15T07:20:25.763Z,0
2016-12-15T07:21:10.916Z,0
2016-12-15T07:22:10.885Z,0
2016-12-15T07:23:10.899Z,0
2016-12-15T07:24:25.834Z,0
2016-12-15T07:25:10.933Z,0
2016-12-15T07:26:10.949Z,0
2016-12-15T07:27:10.990Z,0
2016-12-15T07:28:10.982Z,0
2016-12-15T07:29:11.003Z,0
2016-12-15T07:30:11.017Z,0
2016-12-15T07:31:25.952Z,0
2016-12-15T07:32:11.100Z,0
2016-12-15T07:33:11.070Z,0
2016-12-15T07:34:26.003Z,5
2016-12-15T07:35:26.018Z,5
2016-12-15T07:36:11.130Z,5
2016-12-15T07:37:26.052Z,5
2016-12-15T07:39:11.168Z,5
2016-12-15T07:40:11.187Z,5
2016-12-15T07:41:11.206Z,5
2016-12-15T07:42:11.222Z,5
2016-12-15T07:43:11.236Z,5
2016-12-15T07:44:11.252Z,5
2016-12-15T07:45:26.187Z,5
2016-12-15T07:46:11.283Z,5
2016-12-15T07:47:26.225Z,5
2016-12-15T07:48:26.241Z,5
2016-12-15T07:49:11.336Z,5
2016-12-15T07:50:26.273Z,5
2016-12-15T07:51:26.287Z,5
2016-12-15T07:52:26.304Z,5
2016-12-15T07:53:11.404Z,5
2016-12-15T07:54:11.423Z,5
2016-12-15T07:55:11.743Z,5
2016-12-15T07:56:26.377Z,5
2016-12-15T07:57:11.474Z,5
2016-12-15T07:58:11.488Z,10
2016-12-15T07:59:11.511Z,10
2016-12-15T08:00:11.525Z,10
2016-12-15T08:01:11.538Z,10
2016-12-15T08:02:26.481Z,10
2016-12-15T08:03:11.572Z,10
2016-12-15T08:04:26.506Z,10
2016-12-15T08:05:11.605Z,10
2016-12-15T08:06:11.623Z,10
2016-12-15T08:07:11.644Z,10
2016-12-15T08:08:11.664Z,10
2016-12-15T08:10:12.008Z,10
2016-12-15T08:11:11.719Z,10
2016-12-15T08:12:26.645Z,10
2016-12-15T08:13:11.742Z,10
2016-12-15T08:14:11.762Z,10
2016-12-15T08:15:11.779Z,10
2016-12-15T08:16:26.713Z,10
2016-12-15T08:17:11.811Z,10
2016-12-15T08:18:11.879Z,10
2016-12-15T08:19:11.848Z,10
2016-12-15T08:20:11.861Z,10
2016-12-15T08:21:11.888Z,15
2016-12-15T08:22:26.816Z,15
2016-12-15T08:23:11.916Z,15
2016-12-15T08:24:11.931Z,15
2016-12-15T08:25:11.954Z,15
2016-12-15T08:26:11.966Z,15
2016-12-15T08:27:11.983Z,15
2016-12-15T08:28:26.916Z,15
2016-12-15T08:29:12.021Z,15
2016-12-15T08:30:12.038Z,15
2016-12-15T08:31:12.051Z,15
2016-12-15T08:32:26.992Z,15
2016-12-15T08:33:12.083Z,15
2016-12-15T08:34:12.107Z,15
2016-12-15T08:36:27.057Z,15
2016-12-15T08:37:12.156Z,15
2016-12-15T08:39:27.105Z,15
2016-12-15T08:40:12.205Z,15
2016-12-15T08:41:12.274Z,20
2016-12-15T08:43:12.258Z,20
2016-12-15T08:44:27.197Z,20
2016-12-15T08:45:12.294Z,20
2016-12-15T08:46:27.229Z,20
2016-12-15T08:47:12.324Z,20
2016-12-15T08:48:12.342Z,20
2016-12-15T08:49:27.281Z,20
2016-12-15T08:50:12.378Z,20
2016-12-15T08:51:12.393Z,25
2016-12-15T08:52:12.409Z,25
2016-12-15T08:53:27.348Z,25
2016-12-15T08:54:12.443Z,25
2016-12-15T08:55:12.465Z,25
2016-12-15T08:56:27.396Z,25
2016-12-15T08:57:12.525Z,25
2016-12-15T08:58:12.518Z,25
2016-12-15T08:59:27.453Z,30
2016-12-15T09:00:12.552Z,30
2016-12-15T09:01:12.919Z,30
2016-12-15T09:02:12.584Z,30
2016-12-15T09:03:12.604Z,30
2016-12-15T09:04:12.618Z,30
2016-12-15T09:05:12.634Z,30
2016-12-15T09:06:27.571Z,35
2016-12-15T09:07:12.679Z,35
2016-12-15T09:08:12.688Z,35
2016-12-15T09:10:12.722Z,40
2016-12-15T09:11:27.655Z,40
2016-12-15T09:12:12.759Z,40
2016-12-15T09:13:12.776Z,45
2016-12-15T09:15:12.853Z,45
2016-12-15T09:16:12.825Z,45
2016-12-15T09:17:12.841Z,50
2016-12-15T09:18:27.786Z,50
2016-12-15T09:19:12.882Z,50
2016-12-15T09:20:27.814Z,50
2016-12-15T09:21:12.914Z,50
2016-12-15T09:22:12.931Z,55
2016-12-15T09:23:27.924Z,55
2016-12-15T09:24:27.884Z,50
2016-12-15T09:25:12.983Z,50
2016-12-15T09:26:27.920Z,55
2016-12-15T09:27:27.933Z,55
2016-12-15T09:28:13.033Z,55
2016-12-15T09:29:13.382Z,55
2016-12-15T09:30:13.068Z,55
2016-12-15T09:31:28.003Z,55
2016-12-15T09:32:13.105Z,55
2016-12-15T09:33:13.119Z,55
2016-12-15T09:34:28.059Z,55
2016-12-15T09:35:28.081Z,60
2016-12-15T09:36:13.177Z,60
2016-12-15T09:37:28.109Z,60
2016-12-15T09:38:28.125Z,60
2016-12-15T09:39:13.230Z,60
2016-12-15T09:40:28.162Z,55
2016-12-15T09:41:13.261Z,55
2016-12-15T09:42:13.309Z,60
2016-12-15T09:43:13.302Z,60
2016-12-15T09:44:13.317Z,60
2016-12-15T09:45:13.334Z,60
2016-12-15T09:46:13.351Z,60
2016-12-15T09:47:28.283Z,60
2016-12-15T09:48:13.385Z,55
2016-12-15T09:49:13.454Z,60
2016-12-15T09:50:13.422Z,60
2016-12-15T09:51:13.444Z,60
2016-12-15T09:52:13.455Z,60
2016-12-15T09:53:28.394Z,60
2016-12-15T09:54:13.491Z,60
2016-12-15T09:55:13.511Z,60
2016-12-15T09:56:13.524Z,60
2016-12-15T09:57:13.548Z,60
2016-12-15T09:58:14.017Z,60
2016-12-15T09:59:13.579Z,60
2016-12-15T10:00:14.248Z,60
2016-12-15T10:01:13.615Z,60
2016-12-15T10:02:13.633Z,65
2016-12-15T10:03:28.573Z,65
2016-12-15T10:04:28.641Z,65
2016-12-15T10:05:14.060Z,65
2016-12-15T10:06:13.705Z,65
2016-12-15T10:07:13.723Z,65
2016-12-15T10:08:13.740Z,65
2016-12-15T10:09:13.766Z,65
2016-12-15T10:10:28.995Z,60
2016-12-15T10:11:13.789Z,60
2016-12-15T10:12:13.808Z,60
2016-12-15T10:13:28.772Z,60
2016-12-15T10:14:28.766Z,60
2016-12-15T10:15:29.132Z,60
2016-12-15T10:16:13.885Z,55
2016-12-15T10:17:13.898Z,55
2016-12-15T10:18:13.916Z,55
2016-12-15T10:19:28.855Z,55
2016-12-15T10:20:13.951Z,55
2016-12-15T10:21:28.890Z,60
2016-12-15T10:22:28.912Z,60
2016-12-15T10:23:28.928Z,60
2016-12-15T10:24:14.026Z,60
2016-12-15T10:25:14.045Z,60
2016-12-15T10:26:28.974Z,60
2016-12-15T10:27:14.076Z,60
2016-12-15T10:28:14.099Z,60
2016-12-15T10:29:14.112Z,60
2016-12-15T10:30:29.047Z,60
2016-12-15T10:31:29.064Z,60
2016-12-15T10:32:14.169Z,60
2016-12-15T10:33:14.189Z,60
2016-12-15T10:34:29.124Z,60
2016-12-15T10:35:14.224Z,55
2016-12-15T10:36:14.237Z,55
2016-12-15T10:37:14.260Z,55
2016-12-15T10:38:14.287Z,55
2016-12-15T10:39:14.292Z,55
2016-12-15T10:40:14.313Z,60
2016-12-15T10:41:29.244Z,60
2016-12-15T10:42:14.343Z,60
2016-12-15T10:43:14.364Z,60
2016-12-15T10:44:14.383Z,55
2016-12-15T10:45:29.317Z,55
2016-12-15T10:47:14.432Z,55
2016-12-15T10:49:14.473Z,55
2016-12-15T10:50:14.493Z,55
2016-12-15T10:51:14.508Z,55
2016-12-15T10:52:14.531Z,55
2016-12-15T10:53:14.845Z,55
2016-12-15T10:54:29.485Z,55
2016-12-15T10:55:14.575Z,55
2016-12-15T10:56:14.610Z,55
2016-12-15T10:57:14.610Z,55
2016-12-15T10:58:14.633Z,55
2016-12-15T10:59:14.647Z,55
2016-12-15T11:00:14.668Z,55
2016-12-15T11:01:29.602Z,60
2016-12-15T11:02:29.618Z,55
2016-12-15T11:03:14.727Z,55
2016-12-15T11:04:14.742Z,55
2016-12-15T11:05:14.755Z,55
2016-12-15T11:06:29.693Z,55
2016-12-15T11:07:14.794Z,55
2016-12-15T11:08:14.811Z,55
2016-12-15T11:09:14.827Z,55
2016-12-15T11:10:14.850Z,55
2016-12-15T11:11:14.863Z,55
2016-12-15T11:12:14.934Z,55
2016-12-15T11:13:14.897Z,55
2016-12-15T11:14:29.834Z,50
2016-12-15T11:15:14.939Z,50
2016-12-15T11:16:14.953Z,50
2016-12-15T11:18:44.824Z,50
2016-12-15T11:20:15.027Z,50
2016-12-15T11:21:15.047Z,50
2016-12-15T11:22:30.001Z,50
2016-12-15T11:23:15.079Z,50
2016-12-15T11:24:15.407Z,50
2016-12-15T11:25:15.122Z,50
2016-12-15T11:26:15.138Z,50
2016-12-15T11:27:15.157Z,50
2016-12-15T11:28:15.169Z,50
2016-12-15T11:29:15.500Z,50
2016-12-15T11:30:15.208Z,50
2016-12-15T11:31:30.143Z,50
2016-12-15T11:33:30.175Z,50
2016-12-15T11:34:15.277Z,50
2016-12-15T11:36:15.637Z,45
2016-12-15T11:37:15.328Z,45
2016-12-15T11:38:30.314Z,45
2016-12-15T11:39:15.374Z,45
2016-12-15T11:40:15.408Z,45
2016-12-15T11:41:15.400Z,45
2016-12-15T11:42:15.424Z,45
2016-12-15T11:44:15.451Z,45
2016-12-15T11:45:30.389Z,50
2016-12-15T11:46:15.494Z,50
2016-12-15T11:47:15.515Z,50
2016-12-15T11:48:15.531Z,50
2016-12-15T11:49:15.540Z,50
2016-12-15T11:50:15.562Z,50
2016-12-15T11:51:15.581Z,50
2016-12-15T11:52:15.600Z,50
2016-12-15T11:53:15.611Z,50
2016-12-15T11:54:30.552Z,50
2016-12-15T11:55:15.652Z,50
2016-12-15T11:56:15.669Z,50
2016-12-15T11:57:15.695Z,50
2016-12-15T11:58:15.704Z,50
2016-12-15T11:59:15.723Z,50
2016-12-15T12:01:30.671Z,50
2016-12-15T12:02:15.778Z,50
2016-12-15T12:03:15.794Z,50
2016-12-15T12:04:30.726Z,50
2016-12-15T12:05:30.744Z,50
2016-12-15T12:06:15.842Z,50
2016-12-15T12:07:15.875Z,50
2016-12-15T12:08:15.879Z,50
2016-12-15T12:09:30.815Z,50
2016-12-15T12:11:15.929Z,50
2016-12-15T12:12:15.947Z,50
2016-12-15T12:13:15.964Z,45
2016-12-15T12:14:30.901Z,45
2016-12-15T12:15:16.329Z,45
2016-12-15T12:16:30.940Z,45
2016-12-15T12:17:30.958Z,45
2016-12-15T12:18:16.059Z,45
2016-12-15T12:19:16.078Z,45
2016-12-15T12:20:31.006Z,45
2016-12-15T12:21:16.106Z,45
2016-12-15T12:22:31.040Z,45
2016-12-15T12:23:16.141Z,45
2016-12-15T12:24:16.159Z,45
2016-12-15T12:25:16.177Z,45
2016-12-15T12:26:16.191Z,45
2016-12-15T12:27:16.210Z,45
2016-12-15T12:28:16.233Z,45
2016-12-15T12:29:16.248Z,40
2016-12-15T12:30:16.263Z,40
2016-12-15T12:31:16.280Z,40
2016-12-15T12:32:31.549Z,40
2016-12-15T12:33:31.232Z,40
2016-12-15T12:34:16.344Z,40
2016-12-15T12:35:16.384Z,40
2016-12-15T12:36:31.292Z,40
2016-12-15T12:37:31.309Z,40
2016-12-15T12:38:16.403Z,40
2016-12-15T12:39:16.457Z,35
2016-12-15T12:40:16.752Z,35
2016-12-15T12:41:31.386Z,35
2016-12-15T12:42:16.483Z,35
2016-12-15T12:43:16.499Z,35
2016-12-15T12:44:16.513Z,35
2016-12-15T12:45:16.608Z,35
2016-12-15T12:46:16.548Z,35
2016-12-15T12:47:16.566Z,35
2016-12-15T12:48:16.580Z,35
2016-12-15T12:49:16.597Z,35
2016-12-15T12:50:16.617Z,35
2016-12-15T12:51:16.632Z,35
2016-12-15T12:52:31.569Z,35
2016-12-15T12:53:31.586Z,35
2016-12-15T12:54:16.692Z,30
2016-12-15T12:55:17.060Z,30
2016-12-15T12:56:16.724Z,30
2016-12-15T12:57:31.662Z,30
2016-12-15T12:58:16.759Z,30
2016-12-15T12:59:31.695Z,30
2016-12-15T13:00:16.798Z,30
2016-12-15T13:01:16.809Z,30
2016-12-15T13:02:16.830Z,30
2016-12-15T13:03:16.894Z,30
2016-12-15T13:04:31.781Z,30
2016-12-15T13:05:16.905Z,30
2016-12-15T13:06:16.933Z,30
2016-12-15T13:07:16.939Z,30
2016-12-15T13:08:16.934Z,30
2016-12-15T13:09:16.959Z,30
2016-12-15T13:10:16.967Z,30
2016-12-15T13:11:16.983Z,30
2016-12-15T13:12:17.005Z,25
2016-12-15T13:13:31.939Z,25
2016-12-15T13:14:17.242Z,25
2016-12-15T13:15:17.360Z,25
2016-12-15T13:16:31.994Z,25
2016-12-15T13:17:17.141Z,25
2016-12-15T13:18:17.109Z,25
2016-12-15T13:20:17.142Z,25
2016-12-15T13:21:17.161Z,25
2016-12-15T13:22:17.180Z,25
2016-12-15T13:23:32.112Z,25
2016-12-15T13:24:17.213Z,25
2016-12-15T13:25:32.146Z,20
2016-12-15T13:26:17.245Z,20
2016-12-15T13:27:17.314Z,20
2016-12-15T13:28:17.279Z,20
2016-12-15T13:29:32.217Z,20
2016-12-15T13:30:17.319Z,20
2016-12-15T13:31:17.334Z,20
2016-12-15T13:32:17.351Z,20
2016-12-15T13:33:17.369Z,20
2016-12-15T13:34:17.397Z,20
2016-12-15T13:35:17.401Z,20
2016-12-15T13:36:17.469Z,20
2016-12-15T13:37:17.439Z,20
2016-12-15T13:38:17.466Z,20
2016-12-15T13:39:17.471Z,20
2016-12-15T13:40:32.713Z,20
2016-12-15T13:41:17.866Z,20
2016-12-15T13:42:17.738Z,20
2016-12-15T13:43:17.546Z,15
2016-12-15T13:44:32.477Z,15
2016-12-15T13:45:17.580Z,15
2016-12-15T13:46:17.595Z,15
2016-12-15T13:47:17.668Z,15
2016-12-15T13:48:17.654Z,15
2016-12-15T13:49:17.650Z,15
2016-12-15T13:50:32.583Z,15
2016-12-15T13:51:17.695Z,15
2016-12-15T13:52:18.005Z,15
2016-12-15T13:53:17.721Z,15
2016-12-15T13:54:17.742Z,15
2016-12-15T13:55:17.784Z,15
2016-12-15T13:56:17.773Z,15
2016-12-15T13:57:17.795Z,15
2016-12-15T13:58:17.808Z,15
2016-12-15T13:59:17.833Z,15
2016-12-15T14:00:17.844Z,15
2016-12-15T14:01:17.858Z,15
2016-12-15T14:02:17.875Z,15
2016-12-15T14:03:17.888Z,15
2016-12-15T14:04:17.909Z,10
2016-12-15T14:05:32.845Z,10
2016-12-15T14:06:32.861Z,10
2016-12-15T14:07:32.878Z,10
2016-12-15T14:08:17.977Z,10
2016-12-15T14:09:32.916Z,10
2016-12-15T14:10:32.932Z,10
2016-12-15T14:12:18.054Z,10
2016-12-15T14:13:18.060Z,10
2016-12-15T14:14:18.086Z,10
2016-12-15T14:15:18.099Z,10
2016-12-15T14:16:33.041Z,10
2016-12-15T14:17:18.140Z,10
2016-12-15T14:18:18.158Z,10
2016-12-15T14:19:18.172Z,10
2016-12-15T14:20:18.193Z,5
2016-12-15T14:21:18.259Z,5
2016-12-15T14:22:18.224Z,5
2016-12-15T14:23:33.157Z,5
2016-12-15T14:24:18.258Z,5
2016-12-15T14:25:18.284Z,5
2016-12-15T14:26:33.258Z,5
2016-12-15T14:27:18.347Z,5
2016-12-15T14:28:18.329Z,5
2016-12-15T14:29:18.342Z,5
2016-12-15T14:30:33.275Z,5
2016-12-15T14:31:18.427Z,5
2016-12-15T14:32:33.310Z,5
2016-12-15T14:33:18.413Z,5
2016-12-15T14:34:18.434Z,5
2016-12-15T14:35:18.444Z,5
2016-12-15T14:36:18.465Z,0
2016-12-15T14:37:18.480Z,0
2016-12-15T14:38:18.496Z,0
2016-12-15T14:40:18.533Z,0
2016-12-15T14:41:33.787Z,0
2016-12-15T14:42:18.563Z,0
2016-12-15T14:43:18.595Z,0
2016-12-15T14:44:18.605Z,0
2016-12-15T14:46:18.662Z,0
2016-12-15T14:47:18.758Z,0
2016-12-15T14:48:33.591Z,0
2016-12-15T14:49:18.713Z,0
2016-12-15T14:50:18.707Z,0
2016-12-15T14:51:18.727Z,0
2016-12-15T14:52:19.044Z,0
2016-12-15T14:53:33.678Z,0
2016-12-15T14:54:18.778Z,0
2016-12-15T14:55:18.795Z,0
2016-12-15T14:56:18.807Z,0
2016-12-15T14:57:18.828Z,0
2016-12-15T14:58:18.853Z,0
2016-12-15T14:59:18.867Z,0
2016-12-15T15:00:18.883Z,0
2016-12-15T15:01:18.895Z,0
2016-12-15T15:02:18.916Z,0
2016-12-15T15:03:19.241Z,0
2016-12-15T15:04:33.869Z,0
2016-12-15T15:05:18.964Z,0
2016-12-15T15:06:19.296Z,0
2016-12-15T15:07:19.024Z,0
2016-12-15T15:08:19.066Z,0
2016-12-15T15:09:19.036Z,0
2016-12-15T15:10:19.052Z,0
2016-12-15T15:11:19.067Z,0
2016-12-15T15:12:19.090Z,0
2016-12-15T15:13:19.102Z,0
2016-12-15T15:14:19.121Z,0
2016-12-15T15:15:19.138Z,0
2016-12-15T15:16:19.154Z,0
2016-12-15T15:17:19.181Z,0
2016-12-15T15:18:19.192Z,0
2016-12-15T15:19:34.128Z,0
2016-12-15T15:20:19.228Z,0
2016-12-15T15:21:19.246Z,0
2016-12-15T15:22:19.258Z,0
2016-12-15T15:24:34.215Z,0